createdAt,value
2019-03-15T00:01:12.148Z,95.36
2019-03-15T00:03:38.866Z,96.13
2019-03-15T00:06:05.912Z,95.79
2019-03-15T00:08:32.660Z,95.83
2019-03-15T00:10:59.390Z,96.23
2019-03-15T00:13:26.128Z,96.37
2019-03-15T00:15:52.858Z,96.23
2019-03-15T00:18:19.586Z,96.77
2019-03-15T00:20:46.306Z,97.00
2019-03-15T00:23:13.024Z,95.85
2019-03-15T00:25:43.034Z,95.91
2019-03-15T00:28:09.758Z,97.41
2019-03-15T00:30:36.430Z,97.41
2019-03-15T00:33:03.137Z,96.51
2019-03-15T00:35:29.844Z,96.92
2019-03-15T00:37:56.676Z,97.73
2019-03-15T00:40:23.496Z,97.73
2019-03-15T00:42:50.244Z,97.73
2019-03-15T00:45:16.959Z,98.14
2019-03-15T00:47:43.656Z,97.56
2019-03-15T00:50:10.928Z,97.60
2019-03-15T00:52:37.639Z,97.60
2019-03-15T00:55:04.693Z,96.81
2019-03-15T00:57:31.422Z,98.19
2019-03-15T00:59:58.144Z,98.19
2019-03-15T01:02:26.056Z,97.54
2019-03-15T01:04:52.769Z,97.25
2019-03-15T01:07:19.477Z,97.99
2019-03-15T01:09:46.698Z,98.16
2019-03-15T01:12:13.425Z,98.31
2019-03-15T01:14:40.176Z,97.39
2019-03-15T01:17:06.876Z,98.19
2019-03-15T01:19:33.611Z,98.19
2019-03-15T01:22:00.314Z,98.38
2019-03-15T01:24:27.034Z,98.55
2019-03-15T01:26:53.745Z,98.78
2019-03-15T01:29:20.491Z,98.39
2019-03-15T01:31:47.183Z,98.18
2019-03-15T01:34:14.896Z,97.70
2019-03-15T01:36:41.946Z,97.82
2019-03-15T01:39:08.696Z,98.07
2019-03-15T01:41:35.351Z,98.09
2019-03-15T01:44:02.058Z,97.23
2019-03-15T01:46:30.195Z,97.96
2019-03-15T01:48:56.883Z,98.18
2019-03-15T01:51:23.573Z,98.43
2019-03-15T01:53:50.266Z,97.92
2019-03-15T01:56:16.992Z,97.79
2019-03-15T01:58:43.726Z,97.52
2019-03-15T02:01:10.902Z,96.71
2019-03-15T02:03:37.622Z,96.23
2019-03-15T02:06:07.083Z,95.90
2019-03-15T02:08:33.779Z,95.30
2019-03-15T02:11:00.518Z,95.96
2019-03-15T02:13:27.572Z,95.96
2019-03-15T02:15:54.290Z,95.06
2019-03-15T02:18:20.990Z,95.31
2019-03-15T02:20:48.099Z,95.69
2019-03-15T02:23:14.794Z,95.69
2019-03-15T02:25:41.537Z,95.14
2019-03-15T02:28:08.247Z,95.18
2019-03-15T02:30:35.248Z,95.85
2019-03-15T02:33:01.936Z,95.81
2019-03-15T02:35:29.049Z,95.00
2019-03-15T02:37:55.795Z,96.23
2019-03-15T02:40:22.552Z,96.23
2019-03-15T02:42:49.351Z,96.79
2019-03-15T02:45:16.101Z,96.78
2019-03-15T02:47:42.841Z,96.18
2019-03-15T02:50:09.575Z,95.91
2019-03-15T02:52:36.272Z,95.88
2019-03-15T02:55:03.324Z,95.64
2019-03-15T02:57:30.429Z,95.74
2019-03-15T02:59:57.491Z,95.80
2019-03-15T03:02:24.204Z,95.79
2019-03-15T03:04:50.919Z,95.12
2019-03-15T03:07:21.382Z,95.22
2019-03-15T03:09:48.111Z,95.58
2019-03-15T03:12:14.836Z,95.70
2019-03-15T03:14:41.549Z,95.50
2019-03-15T03:17:08.395Z,95.49
2019-03-15T03:19:35.139Z,96.08
2019-03-15T03:22:01.872Z,95.50
2019-03-15T03:24:28.887Z,94.81
2019-03-15T03:26:55.614Z,94.39
2019-03-15T03:29:22.321Z,93.99
2019-03-15T03:31:49.039Z,92.98
2019-03-15T03:34:15.847Z,93.15
2019-03-15T03:36:42.592Z,93.63
2019-03-15T03:39:09.309Z,92.93
2019-03-15T03:41:36.030Z,92.23
2019-03-15T03:44:02.805Z,92.31
2019-03-15T03:46:29.546Z,91.99
2019-03-15T03:48:56.224Z,91.86
2019-03-15T03:51:22.953Z,91.26
2019-03-15T03:53:49.686Z,90.71
2019-03-15T03:56:17.447Z,91.70
2019-03-15T03:58:46.227Z,90.73
2019-03-15T04:01:13.260Z,91.44
2019-03-15T04:03:40.032Z,91.29
2019-03-15T04:06:06.779Z,90.02
2019-03-15T04:08:33.521Z,89.97
2019-03-15T04:11:03.945Z,89.11
2019-03-15T04:13:31.016Z,89.46
2019-03-15T04:15:57.727Z,89.37
2019-03-15T04:18:24.911Z,90.13
2019-03-15T04:20:51.624Z,89.43
2019-03-15T04:23:18.342Z,87.99
2019-03-15T04:25:45.068Z,88.69
2019-03-15T04:28:12.118Z,88.44
2019-03-15T04:30:38.828Z,89.15
2019-03-15T04:33:05.513Z,88.70
2019-03-15T04:35:32.233Z,88.26
2019-03-15T04:37:58.963Z,87.82
2019-03-15T04:40:25.659Z,87.88
2019-03-15T04:42:52.479Z,88.18
2019-03-15T04:45:19.275Z,88.63
2019-03-15T04:47:48.713Z,87.68
2019-03-15T04:50:15.430Z,87.46
2019-03-15T04:52:42.176Z,87.90
2019-03-15T04:55:08.861Z,87.63
2019-03-15T04:57:35.610Z,87.34
2019-03-15T05:00:03.376Z,86.71
2019-03-15T05:02:30.105Z,86.94
2019-03-15T05:05:00.103Z,86.93
2019-03-15T05:07:25.803Z,86.65
2019-03-15T05:09:52.527Z,86.18
2019-03-15T05:12:19.281Z,86.47
2019-03-15T05:14:46.120Z,86.01
2019-03-15T05:17:12.847Z,85.58
2019-03-15T05:19:39.647Z,86.30
2019-03-15T05:22:06.279Z,86.02
2019-03-15T05:24:37.799Z,86.25
2019-03-15T05:27:04.489Z,86.62
2019-03-15T05:29:31.173Z,86.92
2019-03-15T05:31:57.913Z,87.40
2019-03-15T05:34:24.615Z,87.56
2019-03-15T05:36:51.360Z,88.05
2019-03-15T05:39:18.070Z,88.52
2019-03-15T05:41:44.904Z,88.94
2019-03-15T05:44:11.609Z,88.96
2019-03-15T05:46:38.663Z,89.28
2019-03-15T05:49:05.361Z,89.39
2019-03-15T05:51:32.113Z,89.42
2019-03-15T05:53:58.797Z,89.59
2019-03-15T05:56:28.151Z,89.51
2019-03-15T05:58:54.715Z,89.43
2019-03-15T06:01:21.437Z,89.49
2019-03-15T06:03:49.378Z,89.80
2019-03-15T06:06:16.353Z,89.77
2019-03-15T06:08:43.097Z,89.77
2019-03-15T06:11:10.165Z,89.65
2019-03-15T06:13:37.203Z,89.69
2019-03-15T06:16:04.134Z,89.93
2019-03-15T06:18:30.976Z,90.26
2019-03-15T06:20:57.689Z,90.52
2019-03-15T06:23:24.553Z,90.65
2019-03-15T06:25:51.281Z,90.61
2019-03-15T06:28:18.147Z,90.62
2019-03-15T06:30:45.193Z,90.69
2019-03-15T06:33:11.985Z,90.90
2019-03-15T06:35:38.747Z,90.63
2019-03-15T06:38:06.712Z,90.38
2019-03-15T06:40:33.439Z,90.35
2019-03-15T06:43:00.213Z,90.29
2019-03-15T06:45:27.104Z,90.46
2019-03-15T06:47:53.848Z,90.66
2019-03-15T06:50:20.541Z,90.76
2019-03-15T06:52:47.306Z,90.67
2019-03-15T06:55:14.071Z,90.71
2019-03-15T06:57:41.003Z,91.41
2019-03-15T07:00:07.938Z,91.15
2019-03-15T07:02:34.866Z,91.25
2019-03-15T07:05:01.872Z,91.25
2019-03-15T07:07:28.654Z,91.26
2019-03-15T07:09:55.423Z,91.16
2019-03-15T07:12:22.234Z,91.34
2019-03-15T07:14:49.486Z,91.40
2019-03-15T07:17:16.314Z,91.76
2019-03-15T07:19:43.159Z,91.45
2019-03-15T07:22:09.978Z,91.51
2019-03-15T07:24:36.747Z,91.40
2019-03-15T07:27:12.935Z,91.48
2019-03-15T07:29:32.433Z,91.53
2019-03-15T07:31:59.615Z,91.86
2019-03-15T07:34:26.465Z,92.14
2019-03-15T07:36:55.380Z,92.11
2019-03-15T07:39:21.960Z,92.02
2019-03-15T07:41:48.860Z,92.01
2019-03-15T07:44:15.763Z,92.29
2019-03-15T07:46:43.494Z,92.46
2019-03-15T07:49:10.370Z,92.15
2019-03-15T07:51:37.304Z,92.03
2019-03-15T07:54:04.067Z,92.14
2019-03-15T07:56:30.811Z,91.82
2019-03-15T07:58:57.973Z,92.29
2019-03-15T08:01:25.019Z,91.99
2019-03-15T08:03:53.654Z,92.01
2019-03-15T08:06:33.835Z,92.06
2019-03-15T08:08:49.135Z,91.93
2019-03-15T08:11:16.004Z,92.25
2019-03-15T08:13:43.944Z,92.68
2019-03-15T08:16:10.678Z,92.09
2019-03-15T08:18:37.598Z,92.18
2019-03-15T08:21:04.440Z,92.26
2019-03-15T08:23:31.348Z,92.30
2019-03-15T08:25:58.239Z,92.17
2019-03-15T08:28:25.602Z,92.41
2019-03-15T08:30:52.510Z,92.26
2019-03-15T08:33:19.477Z,92.46
2019-03-15T08:35:46.414Z,92.36
2019-03-15T08:38:13.214Z,92.70
2019-03-15T08:40:42.864Z,92.94
2019-03-15T08:43:09.638Z,92.79
2019-03-15T08:45:36.415Z,92.69
2019-03-15T08:48:03.265Z,92.96
2019-03-15T08:50:30.658Z,92.77
2019-03-15T08:52:57.432Z,92.80
2019-03-15T08:55:24.381Z,92.72
2019-03-15T08:57:55.117Z,92.76
2019-03-15T09:00:22.245Z,92.84
2019-03-15T09:02:48.992Z,92.71
2019-03-15T09:05:15.933Z,92.86
2019-03-15T09:07:46.484Z,92.82
2019-03-15T09:10:22.813Z,93.05
2019-03-15T09:12:42.888Z,93.26
2019-03-15T09:15:17.060Z,93.17
2019-03-15T09:17:46.184Z,92.99
2019-03-15T09:20:15.910Z,93.31
2019-03-15T09:22:43.008Z,93.47
2019-03-15T09:25:19.127Z,93.34
2019-03-15T09:27:45.030Z,93.09
2019-03-15T09:30:22.503Z,93.14
2019-03-15T09:32:42.227Z,93.16
2019-03-15T09:35:11.182Z,93.00
2019-03-15T09:37:38.226Z,92.91
2019-03-15T09:40:06.582Z,92.77
2019-03-15T09:42:34.738Z,92.78
2019-03-15T09:45:04.014Z,92.84
2019-03-15T09:47:30.811Z,92.97
2019-03-15T09:49:57.744Z,93.09
2019-03-15T09:52:28.567Z,93.18
2019-03-15T09:54:55.677Z,93.51
2019-03-15T09:57:22.591Z,93.73
2019-03-15T09:59:49.472Z,93.81
2019-03-15T10:02:29.267Z,93.98
2019-03-15T10:04:46.482Z,94.11
2019-03-15T10:07:13.548Z,94.44
2019-03-15T10:09:45.757Z,94.39
2019-03-15T10:12:09.870Z,94.32
2019-03-15T10:14:36.636Z,94.30
2019-03-15T10:17:05.316Z,94.37
2019-03-15T10:19:32.432Z,94.06
2019-03-15T10:22:01.866Z,93.74
2019-03-15T10:24:28.612Z,93.39
2019-03-15T10:26:55.891Z,92.69
2019-03-15T10:29:24.667Z,92.44
2019-03-15T10:31:51.421Z,92.33
2019-03-15T10:34:18.920Z,92.34
2019-03-15T10:36:46.062Z,92.19
2019-03-15T10:39:16.102Z,92.43
2019-03-15T10:41:42.894Z,92.20
2019-03-15T10:44:10.068Z,92.39
2019-03-15T10:46:36.865Z,92.54
2019-03-15T10:49:03.600Z,92.50
2019-03-15T10:51:30.601Z,92.82
2019-03-15T10:53:58.746Z,92.93
2019-03-15T10:56:25.521Z,92.69
2019-03-15T10:58:52.412Z,92.85
2019-03-15T11:01:19.188Z,92.94
2019-03-15T11:03:46.999Z,92.63
2019-03-15T11:06:14.158Z,92.71
2019-03-15T11:08:44.834Z,92.52
2019-03-15T11:11:11.584Z,92.46
2019-03-15T11:13:38.655Z,92.25
2019-03-15T11:16:05.655Z,92.11
2019-03-15T11:18:36.785Z,92.27
2019-03-15T11:21:04.303Z,92.52
2019-03-15T11:23:31.423Z,92.74
2019-03-15T11:25:58.981Z,92.54
2019-03-15T11:28:28.585Z,92.64
2019-03-15T11:30:55.409Z,93.16
2019-03-15T11:33:22.126Z,93.10
2019-03-15T11:35:48.878Z,92.86
2019-03-15T11:38:18.776Z,93.03
2019-03-15T11:40:52.078Z,92.67
2019-03-15T11:43:25.510Z,92.55
2019-03-15T11:45:54.153Z,92.31
2019-03-15T11:48:21.359Z,92.21
2019-03-15T11:50:50.326Z,91.63
2019-03-15T11:53:18.942Z,91.60
2019-03-15T11:55:48.459Z,91.20
2019-03-15T11:58:15.244Z,91.09
2019-03-15T12:00:41.981Z,91.01
2019-03-15T12:03:08.789Z,91.16
2019-03-15T12:05:35.639Z,91.16
2019-03-15T12:08:03.733Z,90.87
2019-03-15T12:10:32.228Z,91.01
2019-03-15T12:12:59.065Z,90.92
2019-03-15T12:15:27.307Z,90.95
2019-03-15T12:17:54.262Z,91.05
2019-03-15T12:20:23.508Z,91.68
2019-03-15T12:22:50.256Z,91.78
2019-03-15T12:25:17.086Z,92.18
2019-03-15T12:27:43.846Z,92.51
2019-03-15T12:30:10.819Z,92.79
2019-03-15T12:32:39.494Z,92.91
2019-03-15T12:35:08.207Z,92.94
2019-03-15T12:37:34.913Z,92.30
2019-03-15T12:40:02.151Z,92.50
2019-03-15T12:42:29.054Z,92.26
2019-03-15T12:44:56.230Z,92.08
2019-03-15T12:47:22.984Z,92.06
2019-03-15T12:49:49.912Z,91.64
2019-03-15T12:52:20.357Z,91.69
2019-03-15T12:54:46.183Z,91.32
2019-03-15T12:57:13.186Z,91.29
2019-03-15T12:59:40.494Z,91.30
2019-03-15T13:02:07.278Z,91.82
2019-03-15T13:04:36.606Z,92.28
2019-03-15T13:07:03.494Z,91.89
2019-03-15T13:09:30.336Z,91.75
2019-03-15T13:11:57.301Z,91.62
2019-03-15T13:14:24.050Z,90.91
2019-03-15T13:16:53.865Z,90.39
2019-03-15T13:19:21.138Z,90.17
2019-03-15T13:21:48.489Z,90.31
2019-03-15T13:24:15.221Z,90.82
2019-03-15T13:26:42.052Z,90.92
2019-03-15T13:29:12.308Z,91.20
2019-03-15T13:31:39.102Z,90.62
2019-03-15T13:34:07.265Z,90.94
2019-03-15T13:36:34.288Z,91.15
2019-03-15T13:39:07.895Z,91.37
2019-03-15T13:41:34.741Z,90.94
2019-03-15T13:44:05.405Z,91.23
2019-03-15T13:46:36.431Z,91.53
2019-03-15T13:49:03.304Z,91.15
2019-03-15T13:51:31.468Z,90.80
2019-03-15T13:53:58.446Z,90.87
2019-03-15T13:56:25.223Z,91.14
2019-03-15T13:58:57.580Z,90.96
2019-03-15T14:01:24.746Z,90.76
2019-03-15T14:03:51.478Z,90.61
2019-03-15T14:06:20.607Z,90.59
2019-03-15T14:08:47.506Z,90.31
2019-03-15T14:11:14.295Z,89.83
2019-03-15T14:13:41.587Z,89.82
2019-03-15T14:16:08.494Z,89.56
2019-03-15T14:18:35.453Z,89.20
2019-03-15T14:21:02.309Z,88.69
2019-03-15T14:23:29.385Z,88.48
2019-03-15T14:26:00.472Z,88.30
2019-03-15T14:28:27.419Z,88.02
2019-03-15T14:30:57.816Z,87.96
2019-03-15T14:33:24.767Z,87.67
2019-03-15T14:35:51.565Z,87.45
2019-03-15T14:38:23.903Z,87.06
2019-03-15T14:40:51.278Z,87.14
2019-03-15T14:43:18.820Z,87.12
2019-03-15T14:45:45.668Z,87.15
2019-03-15T14:48:12.823Z,87.14
2019-03-15T14:50:44.102Z,87.51
2019-03-15T14:53:16.113Z,87.43
2019-03-15T14:55:43.437Z,87.39
2019-03-15T14:58:10.282Z,87.88
2019-03-15T15:00:37.058Z,88.07
2019-03-15T15:03:14.124Z,88.05
2019-03-15T15:05:42.051Z,88.38
2019-03-15T15:08:14.122Z,89.05
2019-03-15T15:10:43.483Z,88.88
2019-03-15T15:13:10.691Z,89.01
2019-03-15T15:15:37.632Z,89.49
2019-03-15T15:18:15.073Z,89.96
2019-03-15T15:20:41.819Z,90.71
2019-03-15T15:23:10.146Z,91.38
2019-03-15T15:25:40.258Z,91.83
2019-03-15T15:28:06.987Z,91.67
2019-03-15T15:30:33.727Z,91.18
2019-03-15T15:33:00.617Z,91.03
2019-03-15T15:35:27.390Z,90.82
2019-03-15T15:37:54.311Z,90.57
2019-03-15T15:40:21.369Z,90.46
2019-03-15T15:42:48.145Z,89.19
2019-03-15T15:45:17.857Z,88.41
2019-03-15T15:47:44.708Z,87.98
2019-03-15T15:50:12.884Z,87.56
2019-03-15T15:52:40.374Z,86.98
2019-03-15T15:55:07.464Z,86.92
2019-03-15T15:57:34.206Z,87.05
2019-03-15T16:00:01.208Z,86.82
2019-03-15T16:02:29.961Z,86.67
2019-03-15T16:04:56.773Z,86.41
2019-03-15T16:07:26.213Z,86.47
2019-03-15T16:09:53.175Z,86.74
2019-03-15T16:12:20.235Z,87.15
2019-03-15T16:14:47.877Z,87.78
2019-03-15T16:17:21.637Z,88.17
2019-03-15T16:19:45.940Z,88.47
2019-03-15T16:22:14.067Z,88.76
2019-03-15T16:24:41.001Z,89.27
2019-03-15T16:27:09.862Z,89.63
2019-03-15T16:29:36.903Z,89.97
2019-03-15T16:32:03.885Z,90.08
2019-03-15T16:34:30.641Z,90.26
2019-03-15T16:36:57.546Z,90.51
2019-03-15T16:39:24.317Z,90.67
2019-03-15T16:41:51.312Z,90.62
2019-03-15T16:44:18.332Z,90.32
2019-03-15T16:46:45.503Z,90.57
2019-03-15T16:49:12.399Z,90.21
2019-03-15T16:51:39.263Z,90.25
2019-03-15T16:54:06.329Z,89.93
2019-03-15T16:56:33.236Z,90.07
2019-03-15T16:59:00.317Z,90.22
2019-03-15T17:01:27.353Z,89.93
2019-03-15T17:03:54.224Z,89.96
2019-03-15T17:06:20.950Z,89.99
2019-03-15T17:08:48.429Z,90.00
2019-03-15T17:11:15.497Z,89.78
2019-03-15T17:13:43.717Z,89.61
2019-03-15T17:16:10.588Z,89.61
2019-03-15T17:18:37.509Z,89.68
2019-03-15T17:21:04.381Z,89.79
2019-03-15T17:23:31.245Z,89.99
2019-03-15T17:25:58.424Z,90.58
2019-03-15T17:28:25.466Z,90.85
2019-03-15T17:30:52.257Z,91.63
2019-03-15T17:33:19.208Z,92.14
2019-03-15T17:35:46.219Z,92.21
2019-03-15T17:38:13.960Z,92.18
2019-03-15T17:40:43.282Z,92.38
2019-03-15T17:43:10.774Z,92.06
2019-03-15T17:45:39.565Z,92.12
2019-03-15T17:48:06.560Z,92.15
2019-03-15T17:50:33.342Z,92.38
2019-03-15T17:53:00.340Z,92.34
2019-03-15T17:55:27.111Z,92.25
2019-03-15T17:57:53.973Z,92.35
2019-03-15T18:00:28.849Z,92.27
2019-03-15T18:02:55.596Z,92.30
2019-03-15T18:05:22.506Z,92.46
2019-03-15T18:07:49.220Z,92.75
2019-03-15T18:10:16.056Z,93.06
2019-03-15T18:12:42.969Z,93.50
2019-03-15T18:15:09.870Z,93.76
2019-03-15T18:17:36.682Z,93.86
2019-03-15T18:20:03.672Z,94.16
2019-03-15T18:22:30.482Z,94.36
2019-03-15T18:24:57.317Z,94.51
2019-03-15T18:27:24.159Z,94.37
2019-03-15T18:29:50.915Z,94.20
2019-03-15T18:32:17.732Z,94.04
2019-03-15T18:34:44.465Z,94.12
2019-03-15T18:37:11.380Z,94.04
2019-03-15T18:39:38.701Z,93.81
2019-03-15T18:42:05.680Z,93.82
2019-03-15T18:44:32.544Z,94.13
2019-03-15T18:46:59.322Z,93.92
2019-03-15T18:49:26.339Z,94.05
2019-03-15T18:51:53.270Z,93.94
2019-03-15T18:54:21.128Z,93.98
2019-03-15T18:56:47.908Z,94.16
2019-03-15T18:59:18.426Z,94.20
2019-03-15T19:01:45.208Z,94.14
2019-03-15T19:04:12.834Z,94.04
2019-03-15T19:06:39.688Z,94.24
2019-03-15T19:09:06.890Z,94.25
2019-03-15T19:11:33.884Z,94.20
2019-03-15T19:14:00.821Z,94.39
2019-03-15T19:16:27.575Z,94.10
2019-03-15T19:18:54.819Z,94.05
2019-03-15T19:21:21.655Z,94.07
2019-03-15T19:23:49.356Z,94.20
2019-03-15T19:26:16.217Z,94.42
2019-03-15T19:28:43.187Z,94.16
2019-03-15T19:31:10.214Z,94.27
2019-03-15T19:33:37.208Z,94.31
2019-03-15T19:36:04.394Z,94.49
2019-03-15T19:38:31.184Z,94.83
2019-03-15T19:40:57.944Z,94.99
2019-03-15T19:43:29.222Z,94.88
2019-03-15T19:45:56.446Z,94.57
2019-03-15T19:48:23.194Z,94.65
2019-03-15T19:50:50.013Z,94.74
2019-03-15T19:53:17.049Z,94.76
2019-03-15T19:55:46.797Z,95.09
2019-03-15T19:58:13.558Z,95.06
2019-03-15T20:00:40.312Z,95.02
2019-03-15T20:03:10.137Z,95.19
2019-03-15T20:05:37.003Z,95.10
2019-03-15T20:08:03.946Z,95.14
2019-03-15T20:10:30.675Z,95.25
2019-03-15T20:12:57.535Z,95.12
2019-03-15T20:15:24.287Z,95.13
2019-03-15T20:17:51.115Z,95.28
2019-03-15T20:20:17.856Z,95.17
2019-03-15T20:22:44.837Z,95.03
2019-03-15T20:25:11.718Z,95.41
2019-03-15T20:27:40.384Z,95.46
2019-03-15T20:30:21.012Z,95.74
2019-03-15T20:32:41.011Z,96.12
2019-03-15T20:35:09.380Z,96.27
2019-03-15T20:37:36.425Z,96.75
2019-03-15T20:40:03.691Z,96.80
2019-03-15T20:42:30.432Z,97.26
2019-03-15T20:44:57.858Z,97.30
2019-03-15T20:47:24.570Z,97.35
2019-03-15T20:49:51.340Z,97.74
2019-03-15T20:52:22.260Z,97.75
2019-03-15T20:54:48.971Z,98.17
2019-03-15T20:57:15.691Z,98.71
2019-03-15T20:59:42.485Z,99.04
2019-03-15T21:02:09.281Z,99.36
2019-03-15T21:04:35.964Z,99.91
2019-03-15T21:07:02.713Z,99.82
2019-03-15T21:09:29.619Z,99.93
2019-03-15T21:11:58.943Z,100.00
2019-03-15T21:14:25.772Z,100.00
2019-03-15T21:16:52.524Z,100.00
2019-03-15T21:19:19.228Z,99.74
2019-03-15T21:21:45.942Z,99.51
2019-03-15T21:24:13.228Z,99.41
2019-03-15T21:26:40.099Z,99.50
2019-03-15T21:29:06.847Z,99.38
2019-03-15T21:31:33.584Z,99.68
2019-03-15T21:34:00.284Z,99.77
2019-03-15T21:36:27.007Z,99.86
2019-03-15T21:38:53.839Z,99.88
2019-03-15T21:41:20.571Z,99.70
2019-03-15T21:43:47.778Z,99.72
2019-03-15T21:46:14.507Z,99.69
2019-03-15T21:48:42.128Z,99.72
2019-03-15T21:51:08.875Z,99.38
2019-03-15T21:53:35.618Z,99.73
2019-03-15T21:56:02.441Z,99.50
2019-03-15T21:58:29.162Z,99.78
2019-03-15T22:01:02.385Z,99.65
2019-03-15T22:03:26.421Z,99.66
2019-03-15T22:05:53.177Z,99.76
2019-03-15T22:08:19.850Z,99.93
2019-03-15T22:10:46.612Z,99.75
2019-03-15T22:13:13.765Z,100.00
2019-03-15T22:15:40.471Z,100.00
2019-03-15T22:18:07.255Z,99.93
2019-03-15T22:20:34.300Z,99.35
2019-03-15T22:23:00.998Z,99.76
2019-03-15T22:25:27.727Z,99.12
2019-03-15T22:27:54.568Z,99.10
2019-03-15T22:30:21.328Z,99.07
2019-03-15T22:32:48.166Z,99.44
2019-03-15T22:35:14.885Z,99.81
2019-03-15T22:37:41.895Z,99.48
2019-03-15T22:40:08.589Z,99.46
2019-03-15T22:42:35.288Z,99.65
2019-03-15T22:45:02.217Z,99.98
2019-03-15T22:47:29.059Z,99.52
2019-03-15T22:49:55.790Z,100.00
2019-03-15T22:52:22.507Z,99.88
2019-03-15T22:54:49.512Z,100.00
2019-03-15T22:57:16.619Z,99.94
2019-03-15T22:59:43.336Z,100.00
2019-03-15T23:02:10.157Z,100.00
2019-03-15T23:04:36.856Z,100.00
2019-03-15T23:07:03.581Z,100.00
2019-03-15T23:09:31.452Z,100.00
2019-03-15T23:11:58.161Z,100.00
2019-03-15T23:14:24.859Z,99.96
2019-03-15T23:16:51.565Z,99.42
2019-03-15T23:19:18.292Z,99.42
2019-03-15T23:21:45.025Z,99.08
2019-03-15T23:24:11.726Z,99.52
2019-03-15T23:26:38.482Z,99.80
2019-03-15T23:29:05.137Z,99.88
2019-03-15T23:31:43.090Z,99.99
2019-03-15T23:34:00.565Z,99.76
2019-03-15T23:36:27.285Z,100.00
2019-03-15T23:38:54.082Z,99.94
2019-03-15T23:41:20.807Z,100.00
2019-03-15T23:43:47.599Z,99.89
2019-03-15T23:46:14.411Z,99.34
2019-03-15T23:48:41.467Z,99.58
2019-03-15T23:51:08.186Z,99.41
2019-03-15T23:53:34.897Z,98.42
2019-03-15T23:56:01.657Z,98.57
2019-03-15T23:58:28.917Z,98.92
